TVS4WY LGRP-LKPR
Flight info
| Callsign | TVS4WY |
|---|---|
| Flight time | 2h 34m |
| Altitude | 38000 |
| Route | VANES UM601 ADESO UN133 GIKAS UG18 FSK UN128 RUGAS DCT RAXAD DCT TONDO DCT BEGLA DCT NAVTI DCT BODAL DCT VLM |
| Aircraft | B738/M-SDE3FGHIJ1RWXY/LB1 |
Departure
| Time | 2026-05-01 08:45 |
|---|---|
| Airport | Rhodes International Airport "Diagoras" (LGRP) |
Arrival
| Time | 2026-05-01 11:20 |
|---|---|
| Airport | Václav Havel Airport Prague (LKPR) |
| Time | Latitude | Longitude | Altitude | Speed | Heading |
|---|---|---|---|---|---|
| 2026-05-01 08:12 | 36.40391 | 28.09232 | 27 ft | 0 kts | 160° |
| 2026-05-01 08:38 | 36.40402 | 28.09227 | 27 ft | 4 kts | 157° |
| 2026-05-01 08:38 | 36.40426 | 28.09212 | 27 ft | 4 kts | 143° |
| 2026-05-01 08:38 | 36.40445 | 28.09189 | 27 ft | 4 kts | 113° |
| 2026-05-01 08:39 | 36.40447 | 28.09168 | 27 ft | 0 kts | 70° |
| 2026-05-01 08:41 | 36.40452 | 28.09184 | 27 ft | 5 kts | 70° |
| 2026-05-01 08:41 | 36.40471 | 28.09247 | 27 ft | 11 kts | 70° |
| 2026-05-01 08:41 | 36.40517 | 28.09350 | 27 ft | 16 kts | 44° |
| 2026-05-01 08:42 | 36.40595 | 28.09443 | 27 ft | 14 kts | 61° |
| 2026-05-01 08:42 | 36.40629 | 28.09555 | 27 ft | 14 kts | 70° |
| 2026-05-01 08:42 | 36.40661 | 28.09661 | 27 ft | 13 kts | 70° |
| 2026-05-01 08:42 | 36.40693 | 28.09770 | 27 ft | 14 kts | 70° |
| 2026-05-01 08:43 | 36.40727 | 28.09889 | 27 ft | 15 kts | 70° |
| 2026-05-01 08:43 | 36.40765 | 28.10016 | 27 ft | 16 kts | 70° |
| 2026-05-01 08:43 | 36.40805 | 28.10152 | 27 ft | 17 kts | 70° |
| 2026-05-01 08:43 | 36.40846 | 28.10296 | 27 ft | 18 kts | 70° |
| 2026-05-01 08:44 | 36.40892 | 28.10418 | 27 ft | 14 kts | 39° |
| 2026-05-01 08:44 | 36.40976 | 28.10399 | 26 ft | 13 kts | 315° |
| 2026-05-01 08:44 | 36.41022 | 28.10307 | 29 ft | 10 kts | 293° |
| 2026-05-01 08:44 | 36.41008 | 28.10220 | 26 ft | 14 kts | 250° |
| 2026-05-01 08:45 | 36.40902 | 28.09862 | 26 ft | 78 kts | 250° |
| 2026-05-01 08:45 | 36.40644 | 28.08984 | 28 ft | 135 kts | 250° |
| 2026-05-01 08:45 | 36.40274 | 28.07720 | 169 ft | 166 kts | 251° |
| 2026-05-01 08:45 | 36.39909 | 28.06397 | 890 ft | 164 kts | 259° |
| 2026-05-01 08:46 | 36.39743 | 28.04936 | 1400 ft | 176 kts | 266° |
| 2026-05-01 08:46 | 36.39623 | 28.03318 | 1721 ft | 203 kts | 267° |
| 2026-05-01 08:46 | 36.39501 | 28.01465 | 1959 ft | 230 kts | 267° |
| 2026-05-01 08:46 | 36.39365 | 27.99381 | 2317 ft | 249 kts | 266° |
| 2026-05-01 08:47 | 36.39221 | 27.97217 | 3082 ft | 250 kts | 267° |
| 2026-05-01 08:47 | 36.39076 | 27.95065 | 3881 ft | 252 kts | 266° |
| 2026-05-01 08:47 | 36.38929 | 27.92883 | 4663 ft | 253 kts | 266° |
| 2026-05-01 08:47 | 36.38785 | 27.90747 | 5480 ft | 252 kts | 266° |
| 2026-05-01 08:48 | 36.38639 | 27.88582 | 6301 ft | 251 kts | 266° |
| 2026-05-01 08:48 | 36.38493 | 27.86416 | 7055 ft | 253 kts | 266° |
| 2026-05-01 08:48 | 36.38345 | 27.84226 | 7762 ft | 257 kts | 265° |
| 2026-05-01 08:48 | 36.38192 | 27.81983 | 8442 ft | 263 kts | 265° |
| 2026-05-01 08:49 | 36.38037 | 27.79714 | 9256 ft | 264 kts | 265° |
| 2026-05-01 08:49 | 36.37918 | 27.77436 | 10063 ft | 266 kts | 272° |
| 2026-05-01 08:49 | 36.38156 | 27.75094 | 10453 ft | 284 kts | 279° |
| 2026-05-01 08:49 | 36.38521 | 27.72577 | 10631 ft | 308 kts | 279° |
| 2026-05-01 08:50 | 36.38896 | 27.69864 | 10853 ft | 328 kts | 278° |
| 2026-05-01 08:50 | 36.39266 | 27.67035 | 11406 ft | 335 kts | 278° |
| 2026-05-01 08:50 | 36.39629 | 27.64202 | 12140 ft | 337 kts | 278° |
| 2026-05-01 08:50 | 36.39994 | 27.61320 | 12941 ft | 339 kts | 278° |
| 2026-05-01 08:51 | 36.40425 | 27.58427 | 13681 ft | 344 kts | 286° |
| 2026-05-01 08:51 | 36.41656 | 27.55853 | 14291 ft | 356 kts | 311° |
| 2026-05-01 08:51 | 36.43663 | 27.53988 | 15011 ft | 365 kts | 325° |
| 2026-05-01 08:51 | 36.45831 | 27.52334 | 15689 ft | 367 kts | 323° |
| 2026-05-01 08:52 | 36.47974 | 27.50582 | 16364 ft | 370 kts | 322° |
| 2026-05-01 08:52 | 36.50135 | 27.48790 | 16978 ft | 375 kts | 322° |
| 2026-05-01 08:52 | 36.52296 | 27.46952 | 17700 ft | 375 kts | 320° |
| 2026-05-01 08:52 | 36.54422 | 27.45062 | 18440 ft | 376 kts | 319° |
| 2026-05-01 08:53 | 36.56519 | 27.43167 | 18995 ft | 378 kts | 319° |
| 2026-05-01 08:53 | 36.58657 | 27.41228 | 19557 ft | 381 kts | 319° |
| 2026-05-01 08:53 | 36.60809 | 27.39278 | 20125 ft | 384 kts | 319° |
| 2026-05-01 08:53 | 36.62979 | 27.37317 | 20690 ft | 386 kts | 319° |
| 2026-05-01 08:54 | 36.65169 | 27.35342 | 21248 ft | 389 kts | 319° |
| 2026-05-01 08:54 | 36.67367 | 27.33362 | 21789 ft | 391 kts | 319° |
| 2026-05-01 08:54 | 36.69579 | 27.31371 | 22312 ft | 394 kts | 319° |
| 2026-05-01 08:54 | 36.71809 | 27.29362 | 22824 ft | 397 kts | 319° |
| 2026-05-01 08:55 | 36.74051 | 27.27344 | 23330 ft | 399 kts | 319° |
| 2026-05-01 08:55 | 36.76310 | 27.25309 | 23818 ft | 401 kts | 319° |
| 2026-05-01 08:55 | 36.78574 | 27.23269 | 24290 ft | 402 kts | 319° |
| 2026-05-01 08:55 | 36.80840 | 27.21225 | 24778 ft | 402 kts | 319° |
| 2026-05-01 08:56 | 36.83081 | 27.19202 | 25219 ft | 403 kts | 319° |
| 2026-05-01 08:56 | 36.85382 | 27.17123 | 25656 ft | 404 kts | 318° |
| 2026-05-01 08:56 | 36.87660 | 27.15065 | 26110 ft | 404 kts | 318° |
| 2026-05-01 08:56 | 36.89911 | 27.13029 | 26541 ft | 405 kts | 318° |
| 2026-05-01 08:57 | 36.92203 | 27.10952 | 26952 ft | 406 kts | 318° |
| 2026-05-01 08:57 | 36.94496 | 27.08873 | 27372 ft | 408 kts | 318° |
| 2026-05-01 08:57 | 36.96797 | 27.06786 | 27787 ft | 409 kts | 318° |
| 2026-05-01 08:57 | 36.99110 | 27.04686 | 28207 ft | 410 kts | 318° |
| 2026-05-01 08:58 | 37.01418 | 27.02588 | 28605 ft | 410 kts | 318° |
| 2026-05-01 08:58 | 37.03701 | 27.00507 | 28959 ft | 412 kts | 317° |
| 2026-05-01 08:58 | 37.06060 | 26.98359 | 29214 ft | 416 kts | 317° |
| 2026-05-01 08:58 | 37.08384 | 26.96244 | 29562 ft | 418 kts | 317° |
| 2026-05-01 08:59 | 37.10730 | 26.94109 | 30031 ft | 416 kts | 317° |
| 2026-05-01 08:59 | 37.13063 | 26.91987 | 30546 ft | 411 kts | 317° |
| 2026-05-01 08:59 | 37.15365 | 26.89891 | 31077 ft | 407 kts | 317° |
| 2026-05-01 08:59 | 37.17650 | 26.87809 | 31525 ft | 404 kts | 317° |
| 2026-05-01 09:00 | 37.19914 | 26.85740 | 31952 ft | 401 kts | 317° |
| 2026-05-01 09:00 | 37.22156 | 26.83690 | 32477 ft | 397 kts | 317° |
| 2026-05-01 09:00 | 37.24380 | 26.81655 | 32877 ft | 395 kts | 317° |
| 2026-05-01 09:00 | 37.26598 | 26.79621 | 33222 ft | 394 kts | 317° |
| 2026-05-01 09:01 | 37.28810 | 26.77591 | 33601 ft | 393 kts | 317° |
| 2026-05-01 09:01 | 37.31010 | 26.75572 | 34083 ft | 390 kts | 317° |
| 2026-05-01 09:01 | 37.33181 | 26.73577 | 34261 ft | 393 kts | 317° |
| 2026-05-01 09:01 | 37.35400 | 26.71534 | 34421 ft | 396 kts | 317° |
| 2026-05-01 09:02 | 37.37615 | 26.69496 | 34726 ft | 394 kts | 317° |
| 2026-05-01 09:02 | 37.39830 | 26.67457 | 34943 ft | 395 kts | 317° |
| 2026-05-01 09:02 | 37.42059 | 26.65405 | 35101 ft | 398 kts | 317° |
| 2026-05-01 09:02 | 37.44295 | 26.63347 | 35315 ft | 398 kts | 317° |
| 2026-05-01 09:03 | 37.46530 | 26.61289 | 35569 ft | 398 kts | 317° |
| 2026-05-01 09:03 | 37.48772 | 26.59223 | 35777 ft | 399 kts | 317° |
| 2026-05-01 09:03 | 37.50987 | 26.57179 | 35967 ft | 400 kts | 317° |
| 2026-05-01 09:03 | 37.53261 | 26.55080 | 36240 ft | 399 kts | 317° |
| 2026-05-01 09:04 | 37.55470 | 26.53040 | 36511 ft | 399 kts | 317° |
| 2026-05-01 09:04 | 37.57713 | 26.50964 | 36668 ft | 400 kts | 317° |
| 2026-05-01 09:04 | 37.59974 | 26.48870 | 36836 ft | 402 kts | 317° |
| 2026-05-01 09:04 | 37.62230 | 26.46779 | 37023 ft | 403 kts | 317° |
| 2026-05-01 09:05 | 37.64491 | 26.44682 | 37207 ft | 404 kts | 317° |
| 2026-05-01 09:05 | 37.66765 | 26.42571 | 37366 ft | 405 kts | 317° |
| 2026-05-01 09:05 | 37.69035 | 26.40463 | 37563 ft | 406 kts | 317° |
| 2026-05-01 09:05 | 37.71280 | 26.38378 | 37770 ft | 406 kts | 317° |
| 2026-05-01 09:06 | 37.73559 | 26.36259 | 37943 ft | 406 kts | 317° |
| 2026-05-01 09:06 | 37.75842 | 26.34133 | 38050 ft | 408 kts | 317° |
| 2026-05-01 09:06 | 37.80434 | 26.29852 | 38055 ft | 409 kts | 317° |
| 2026-05-01 09:07 | 37.84993 | 26.25601 | 38071 ft | 405 kts | 317° |
| 2026-05-01 09:07 | 37.89527 | 26.21364 | 38077 ft | 404 kts | 317° |
| 2026-05-01 09:08 | 37.94010 | 26.17166 | 38067 ft | 403 kts | 317° |
| 2026-05-01 09:08 | 37.98521 | 26.12934 | 38077 ft | 403 kts | 317° |
| 2026-05-01 09:09 | 38.03039 | 26.08689 | 38084 ft | 404 kts | 317° |
| 2026-05-01 09:09 | 38.07570 | 26.04425 | 38087 ft | 406 kts | 317° |
| 2026-05-01 09:10 | 38.12122 | 26.00135 | 38096 ft | 408 kts | 317° |
| 2026-05-01 09:10 | 38.16699 | 25.95814 | 38099 ft | 411 kts | 317° |
| 2026-05-01 09:11 | 38.21266 | 25.91497 | 38105 ft | 413 kts | 317° |
| 2026-05-01 09:11 | 38.25891 | 25.87118 | 38105 ft | 415 kts | 317° |
| 2026-05-01 09:12 | 38.30536 | 25.82714 | 38106 ft | 416 kts | 317° |
| 2026-05-01 09:12 | 38.35180 | 25.78305 | 38085 ft | 416 kts | 317° |
| 2026-05-01 09:13 | 38.39819 | 25.73892 | 38097 ft | 416 kts | 317° |
| 2026-05-01 09:13 | 38.44447 | 25.69481 | 38112 ft | 415 kts | 317° |
| 2026-05-01 09:14 | 38.49072 | 25.65067 | 38104 ft | 414 kts | 317° |
| 2026-05-01 09:14 | 38.53686 | 25.60655 | 38120 ft | 414 kts | 317° |
| 2026-05-01 09:15 | 38.58290 | 25.56246 | 38125 ft | 413 kts | 317° |
| 2026-05-01 09:15 | 38.62884 | 25.51839 | 38117 ft | 412 kts | 317° |
| 2026-05-01 09:16 | 38.67436 | 25.47465 | 38131 ft | 412 kts | 317° |
| 2026-05-01 09:17 | 38.74306 | 25.40849 | 38141 ft | 412 kts | 317° |
| 2026-05-01 09:17 | 38.81191 | 25.34203 | 38145 ft | 413 kts | 317° |
| 2026-05-01 09:18 | 38.87300 | 25.28293 | 38148 ft | 413 kts | 317° |
| 2026-05-01 09:19 | 38.94197 | 25.21604 | 38161 ft | 414 kts | 317° |
| 2026-05-01 09:20 | 39.01104 | 25.14890 | 38159 ft | 415 kts | 317° |
| 2026-05-01 09:21 | 39.10326 | 25.05897 | 38167 ft | 416 kts | 317° |
| 2026-05-01 09:21 | 39.17219 | 24.99157 | 38196 ft | 416 kts | 317° |
| 2026-05-01 09:22 | 39.26446 | 24.90106 | 38190 ft | 417 kts | 317° |
| 2026-05-01 09:23 | 39.33363 | 24.83302 | 38187 ft | 417 kts | 317° |
| 2026-05-01 09:24 | 39.40253 | 24.76505 | 38196 ft | 416 kts | 317° |
| 2026-05-01 09:25 | 39.49465 | 24.67392 | 38223 ft | 417 kts | 317° |
| 2026-05-01 09:26 | 39.56401 | 24.60513 | 38207 ft | 418 kts | 317° |
| 2026-05-01 09:26 | 39.63305 | 24.53647 | 38212 ft | 419 kts | 317° |
| 2026-05-01 09:27 | 39.70250 | 24.46721 | 38220 ft | 420 kts | 317° |
| 2026-05-01 09:28 | 39.74879 | 24.42095 | 38249 ft | 420 kts | 317° |
| 2026-05-01 09:28 | 39.79518 | 24.37450 | 38242 ft | 421 kts | 317° |
| 2026-05-01 09:29 | 39.86453 | 24.30491 | 38222 ft | 421 kts | 317° |
| 2026-05-01 09:30 | 39.93415 | 24.23488 | 38233 ft | 421 kts | 317° |
| 2026-05-01 09:30 | 40.00376 | 24.16466 | 38229 ft | 421 kts | 317° |
| 2026-05-01 09:31 | 40.05013 | 24.11778 | 38243 ft | 422 kts | 317° |
| 2026-05-01 09:32 | 40.11962 | 24.04738 | 38243 ft | 422 kts | 317° |
| 2026-05-01 09:32 | 40.18887 | 23.97704 | 38238 ft | 421 kts | 317° |
| 2026-05-01 09:33 | 40.23515 | 23.92992 | 38242 ft | 421 kts | 317° |
| 2026-05-01 09:34 | 40.30445 | 23.85921 | 38245 ft | 421 kts | 317° |
| 2026-05-01 09:34 | 40.37365 | 23.78840 | 38246 ft | 420 kts | 317° |
| 2026-05-01 09:35 | 40.44273 | 23.71754 | 38255 ft | 420 kts | 317° |
| 2026-05-01 09:36 | 40.48845 | 23.67053 | 38248 ft | 420 kts | 317° |
| 2026-05-01 09:36 | 40.53443 | 23.62317 | 38265 ft | 420 kts | 317° |
| 2026-05-01 09:37 | 40.58050 | 23.57563 | 38237 ft | 421 kts | 317° |
| 2026-05-01 09:37 | 40.64977 | 23.50398 | 38233 ft | 422 kts | 317° |
| 2026-05-01 09:38 | 40.71906 | 23.43213 | 38234 ft | 422 kts | 317° |
| 2026-05-01 09:39 | 40.78802 | 23.36042 | 38234 ft | 423 kts | 317° |
| 2026-05-01 09:39 | 40.83437 | 23.31210 | 38235 ft | 425 kts | 318° |
| 2026-05-01 09:40 | 40.90409 | 23.23928 | 38231 ft | 427 kts | 318° |
| 2026-05-01 09:41 | 40.95078 | 23.19040 | 38220 ft | 428 kts | 318° |
| 2026-05-01 09:41 | 41.02054 | 23.11720 | 38215 ft | 429 kts | 318° |
| 2026-05-01 09:42 | 41.06729 | 23.06802 | 38231 ft | 430 kts | 318° |
| 2026-05-01 09:43 | 41.16117 | 22.96900 | 38218 ft | 431 kts | 318° |
| 2026-05-01 09:43 | 41.20784 | 22.91964 | 38227 ft | 432 kts | 318° |
| 2026-05-01 09:44 | 41.27826 | 22.84497 | 38223 ft | 431 kts | 318° |
| 2026-05-01 09:45 | 41.32578 | 22.79622 | 38224 ft | 433 kts | 324° |
| 2026-05-01 09:45 | 41.40862 | 22.74610 | 38214 ft | 437 kts | 334° |
| 2026-05-01 09:46 | 41.46498 | 22.71568 | 38224 ft | 436 kts | 334° |
| 2026-05-01 09:46 | 41.52080 | 22.68508 | 38227 ft | 435 kts | 334° |
| 2026-05-01 09:47 | 41.57677 | 22.65408 | 38230 ft | 435 kts | 334° |
| 2026-05-01 09:47 | 41.63279 | 22.62294 | 38216 ft | 435 kts | 334° |
| 2026-05-01 09:48 | 41.68881 | 22.59175 | 38213 ft | 435 kts | 334° |
| 2026-05-01 09:48 | 41.74470 | 22.56056 | 38218 ft | 435 kts | 334° |
| 2026-05-01 09:49 | 41.80035 | 22.52946 | 38232 ft | 436 kts | 334° |
| 2026-05-01 09:49 | 41.85635 | 22.49811 | 38231 ft | 436 kts | 334° |
| 2026-05-01 09:50 | 41.91250 | 22.46661 | 38217 ft | 437 kts | 334° |
| 2026-05-01 09:50 | 41.96857 | 22.43510 | 38222 ft | 437 kts | 334° |
| 2026-05-01 09:51 | 42.02469 | 22.40350 | 38224 ft | 437 kts | 334° |
| 2026-05-01 09:51 | 42.08086 | 22.37180 | 38230 ft | 437 kts | 334° |
| 2026-05-01 09:52 | 42.13658 | 22.34030 | 38232 ft | 437 kts | 334° |
| 2026-05-01 09:52 | 42.19281 | 22.30846 | 38247 ft | 438 kts | 334° |
| 2026-05-01 09:53 | 42.24909 | 22.27651 | 38247 ft | 439 kts | 334° |
| 2026-05-01 09:53 | 42.30537 | 22.24447 | 38242 ft | 438 kts | 333° |
| 2026-05-01 09:54 | 42.35966 | 22.20741 | 38249 ft | 437 kts | 329° |
| 2026-05-01 09:54 | 42.41300 | 22.16831 | 38254 ft | 437 kts | 329° |
| 2026-05-01 09:55 | 42.46658 | 22.12904 | 38262 ft | 438 kts | 329° |
| 2026-05-01 09:55 | 42.52044 | 22.08986 | 38257 ft | 439 kts | 330° |
| 2026-05-01 09:56 | 42.57434 | 22.05077 | 38272 ft | 439 kts | 330° |
| 2026-05-01 09:56 | 42.62782 | 22.01196 | 38273 ft | 439 kts | 330° |
| 2026-05-01 09:57 | 42.68161 | 21.97285 | 38275 ft | 438 kts | 330° |
| 2026-05-01 09:57 | 42.73544 | 21.93361 | 38279 ft | 438 kts | 330° |
| 2026-05-01 09:58 | 42.78916 | 21.89437 | 38283 ft | 438 kts | 330° |
| 2026-05-01 09:58 | 42.84249 | 21.85534 | 38282 ft | 438 kts | 329° |
| 2026-05-01 09:59 | 42.89610 | 21.81603 | 38297 ft | 437 kts | 330° |
| 2026-05-01 09:59 | 42.94989 | 21.77651 | 38293 ft | 437 kts | 330° |
| 2026-05-01 10:00 | 43.00350 | 21.73704 | 38300 ft | 437 kts | 330° |
| 2026-05-01 10:00 | 43.05714 | 21.69748 | 38301 ft | 437 kts | 330° |
| 2026-05-01 10:01 | 43.11032 | 21.65816 | 38316 ft | 438 kts | 330° |
| 2026-05-01 10:01 | 43.16393 | 21.61846 | 38310 ft | 438 kts | 330° |
| 2026-05-01 10:02 | 43.21755 | 21.57867 | 38308 ft | 438 kts | 330° |
| 2026-05-01 10:02 | 43.27123 | 21.53875 | 38303 ft | 439 kts | 330° |
| 2026-05-01 10:03 | 43.32496 | 21.49871 | 38321 ft | 440 kts | 330° |
| 2026-05-01 10:03 | 43.37878 | 21.45853 | 38313 ft | 440 kts | 330° |
| 2026-05-01 10:04 | 43.43259 | 21.41827 | 38322 ft | 440 kts | 330° |
| 2026-05-01 10:04 | 43.48654 | 21.37782 | 38323 ft | 441 kts | 330° |
| 2026-05-01 10:05 | 43.53136 | 21.34416 | 38317 ft | 442 kts | 330° |
| 2026-05-01 10:05 | 43.59413 | 21.29691 | 38325 ft | 442 kts | 331° |
| 2026-05-01 10:06 | 43.63936 | 21.26280 | 38312 ft | 441 kts | 331° |
| 2026-05-01 10:06 | 43.69293 | 21.22232 | 38318 ft | 441 kts | 331° |
| 2026-05-01 10:07 | 43.74672 | 21.18160 | 38325 ft | 440 kts | 331° |
| 2026-05-01 10:07 | 43.80048 | 21.14081 | 38331 ft | 440 kts | 331° |
| 2026-05-01 10:08 | 43.88099 | 21.07956 | 38319 ft | 440 kts | 331° |
| 2026-05-01 10:09 | 43.93424 | 21.03895 | 38320 ft | 439 kts | 331° |
| 2026-05-01 10:09 | 43.98777 | 20.99804 | 38330 ft | 439 kts | 331° |
| 2026-05-01 10:10 | 44.04125 | 20.95708 | 38334 ft | 439 kts | 332° |
| 2026-05-01 10:10 | 44.12146 | 20.89549 | 38334 ft | 439 kts | 332° |
| 2026-05-01 10:11 | 44.17483 | 20.85440 | 38318 ft | 439 kts | 332° |
| 2026-05-01 10:11 | 44.22822 | 20.81321 | 38335 ft | 438 kts | 332° |
| 2026-05-01 10:12 | 44.28164 | 20.77192 | 38337 ft | 438 kts | 332° |
| 2026-05-01 10:13 | 44.36164 | 20.70991 | 38341 ft | 439 kts | 332° |
| 2026-05-01 10:13 | 44.41504 | 20.66841 | 38344 ft | 439 kts | 332° |
| 2026-05-01 10:14 | 44.49506 | 20.60606 | 38348 ft | 439 kts | 332° |
| 2026-05-01 10:14 | 44.54842 | 20.56438 | 38340 ft | 439 kts | 332° |
| 2026-05-01 10:15 | 44.60145 | 20.52286 | 38342 ft | 439 kts | 332° |
| 2026-05-01 10:15 | 44.65484 | 20.48097 | 38343 ft | 439 kts | 332° |
| 2026-05-01 10:16 | 44.70827 | 20.43896 | 38335 ft | 439 kts | 332° |
| 2026-05-01 10:17 | 44.78805 | 20.37607 | 38349 ft | 439 kts | 333° |
| 2026-05-01 10:17 | 44.86807 | 20.31279 | 38347 ft | 440 kts | 332° |
| 2026-05-01 10:18 | 44.94812 | 20.24928 | 38348 ft | 440 kts | 332° |
| 2026-05-01 10:19 | 45.00156 | 20.20676 | 38341 ft | 440 kts | 333° |
| 2026-05-01 10:19 | 45.05498 | 20.16417 | 38343 ft | 440 kts | 333° |
| 2026-05-01 10:20 | 45.13469 | 20.10045 | 38348 ft | 441 kts | 333° |
| 2026-05-01 10:20 | 45.18808 | 20.05765 | 38351 ft | 441 kts | 333° |
| 2026-05-01 10:21 | 45.26817 | 19.99327 | 38348 ft | 441 kts | 333° |
| 2026-05-01 10:22 | 45.34823 | 19.92871 | 38350 ft | 441 kts | 333° |
| 2026-05-01 10:23 | 45.42818 | 19.86403 | 38357 ft | 441 kts | 333° |
| 2026-05-01 10:23 | 45.50775 | 19.79944 | 38342 ft | 441 kts | 333° |
| 2026-05-01 10:24 | 45.61437 | 19.71256 | 38350 ft | 440 kts | 333° |
| 2026-05-01 10:25 | 45.72079 | 19.62545 | 38356 ft | 440 kts | 333° |
| 2026-05-01 10:26 | 45.77393 | 19.58182 | 38348 ft | 440 kts | 333° |
| 2026-05-01 10:27 | 45.87972 | 19.49465 | 38357 ft | 440 kts | 333° |
| 2026-05-01 10:28 | 45.95928 | 19.42883 | 38352 ft | 439 kts | 333° |
| 2026-05-01 10:28 | 46.03837 | 19.36312 | 38331 ft | 439 kts | 333° |
| 2026-05-01 10:29 | 46.11092 | 19.28141 | 38351 ft | 442 kts | 323° |
| 2026-05-01 10:30 | 46.20457 | 19.16618 | 38365 ft | 441 kts | 324° |
| 2026-05-01 10:31 | 46.29851 | 19.05204 | 38360 ft | 441 kts | 324° |
| 2026-05-01 10:32 | 46.36858 | 18.96673 | 38367 ft | 441 kts | 324° |
| 2026-05-01 10:33 | 46.46246 | 18.85190 | 38367 ft | 441 kts | 324° |
| 2026-05-01 10:34 | 46.53279 | 18.76553 | 38362 ft | 442 kts | 325° |
| 2026-05-01 10:34 | 46.57935 | 18.70817 | 38374 ft | 442 kts | 324° |
| 2026-05-01 10:35 | 46.64979 | 18.62115 | 38374 ft | 443 kts | 324° |
| 2026-05-01 10:35 | 46.69676 | 18.56296 | 38372 ft | 443 kts | 324° |
| 2026-05-01 10:36 | 46.76717 | 18.47545 | 38364 ft | 443 kts | 325° |
| 2026-05-01 10:37 | 46.81411 | 18.41696 | 38366 ft | 444 kts | 325° |
| 2026-05-01 10:37 | 46.88456 | 18.32888 | 38366 ft | 444 kts | 325° |
| 2026-05-01 10:38 | 46.93121 | 18.27038 | 38340 ft | 444 kts | 325° |
| 2026-05-01 10:38 | 46.97796 | 18.21162 | 38356 ft | 443 kts | 326° |
| 2026-05-01 10:39 | 47.02463 | 18.15281 | 38364 ft | 442 kts | 326° |
| 2026-05-01 10:39 | 47.07119 | 18.09401 | 38370 ft | 440 kts | 326° |
| 2026-05-01 10:40 | 47.11754 | 18.03534 | 38364 ft | 439 kts | 325° |
| 2026-05-01 10:40 | 47.16377 | 17.97667 | 38357 ft | 438 kts | 326° |
| 2026-05-01 10:41 | 47.20980 | 17.91813 | 38365 ft | 437 kts | 326° |
| 2026-05-01 10:42 | 47.27826 | 17.83079 | 38372 ft | 435 kts | 326° |
| 2026-05-01 10:42 | 47.32402 | 17.77225 | 38388 ft | 435 kts | 326° |
| 2026-05-01 10:43 | 47.36964 | 17.71374 | 38398 ft | 434 kts | 326° |
| 2026-05-01 10:43 | 47.41508 | 17.65531 | 38390 ft | 432 kts | 326° |
| 2026-05-01 10:44 | 47.46034 | 17.59698 | 38400 ft | 431 kts | 326° |
| 2026-05-01 10:44 | 47.50527 | 17.53895 | 38395 ft | 430 kts | 326° |
| 2026-05-01 10:45 | 47.55031 | 17.48063 | 38397 ft | 430 kts | 326° |
| 2026-05-01 10:45 | 47.59525 | 17.42231 | 38389 ft | 430 kts | 325° |
| 2026-05-01 10:46 | 47.64024 | 17.36378 | 38378 ft | 429 kts | 325° |
| 2026-05-01 10:46 | 47.68505 | 17.30535 | 38385 ft | 429 kts | 325° |
| 2026-05-01 10:47 | 47.72994 | 17.24666 | 38381 ft | 430 kts | 325° |
| 2026-05-01 10:47 | 47.77451 | 17.18825 | 38393 ft | 430 kts | 325° |
| 2026-05-01 10:48 | 47.81939 | 17.12931 | 38393 ft | 429 kts | 325° |
| 2026-05-01 10:48 | 47.86715 | 17.07755 | 38391 ft | 421 kts | 334° |
| 2026-05-01 10:49 | 47.91687 | 17.03135 | 38393 ft | 421 kts | 334° |
| 2026-05-01 10:49 | 47.96671 | 16.98484 | 38386 ft | 423 kts | 334° |
| 2026-05-01 10:50 | 48.01645 | 16.93771 | 38382 ft | 424 kts | 333° |
| 2026-05-01 10:50 | 48.06614 | 16.89024 | 38385 ft | 424 kts | 333° |
| 2026-05-01 10:51 | 48.11562 | 16.84280 | 38403 ft | 425 kts | 333° |
| 2026-05-01 10:51 | 48.16539 | 16.79497 | 38399 ft | 425 kts | 333° |
| 2026-05-01 10:52 | 48.21529 | 16.74692 | 38402 ft | 425 kts | 333° |
| 2026-05-01 10:52 | 48.25667 | 16.70698 | 38400 ft | 425 kts | 333° |
| 2026-05-01 10:53 | 48.30648 | 16.65881 | 38403 ft | 425 kts | 333° |
| 2026-05-01 10:53 | 48.35621 | 16.61061 | 38356 ft | 426 kts | 333° |
| 2026-05-01 10:53 | 48.38128 | 16.58629 | 38047 ft | 429 kts | 333° |
| 2026-05-01 10:54 | 48.40632 | 16.56194 | 37754 ft | 427 kts | 333° |
| 2026-05-01 10:54 | 48.43122 | 16.53768 | 37487 ft | 426 kts | 333° |
| 2026-05-01 10:54 | 48.45580 | 16.51372 | 37226 ft | 426 kts | 333° |
| 2026-05-01 10:54 | 48.48104 | 16.48910 | 36951 ft | 427 kts | 333° |
| 2026-05-01 10:55 | 48.50565 | 16.46506 | 36711 ft | 427 kts | 333° |
| 2026-05-01 10:55 | 48.53052 | 16.44075 | 36458 ft | 427 kts | 333° |
| 2026-05-01 10:55 | 48.55548 | 16.41630 | 36204 ft | 427 kts | 333° |
| 2026-05-01 10:55 | 48.58042 | 16.39185 | 35944 ft | 428 kts | 333° |
| 2026-05-01 10:56 | 48.60539 | 16.36735 | 35699 ft | 428 kts | 333° |
| 2026-05-01 10:56 | 48.63033 | 16.34283 | 35322 ft | 427 kts | 333° |
| 2026-05-01 10:56 | 48.65526 | 16.31831 | 34671 ft | 428 kts | 334° |
| 2026-05-01 10:56 | 48.68024 | 16.29369 | 34010 ft | 426 kts | 334° |
| 2026-05-01 10:57 | 48.70488 | 16.26936 | 33538 ft | 421 kts | 333° |
| 2026-05-01 10:57 | 48.72928 | 16.24525 | 33054 ft | 416 kts | 333° |
| 2026-05-01 10:57 | 48.75339 | 16.22141 | 32593 ft | 411 kts | 333° |
| 2026-05-01 10:57 | 48.77781 | 16.19970 | 32107 ft | 401 kts | 341° |
| 2026-05-01 10:58 | 48.80334 | 16.18374 | 31683 ft | 393 kts | 345° |
| 2026-05-01 10:58 | 48.82871 | 16.16878 | 31205 ft | 390 kts | 345° |
| 2026-05-01 10:58 | 48.85312 | 16.15134 | 30529 ft | 399 kts | 335° |
| 2026-05-01 10:58 | 48.87570 | 16.12646 | 30124 ft | 400 kts | 326° |
| 2026-05-01 10:59 | 48.89653 | 16.09851 | 29416 ft | 401 kts | 325° |
| 2026-05-01 10:59 | 48.91742 | 16.06993 | 28543 ft | 406 kts | 324° |
| 2026-05-01 10:59 | 48.93826 | 16.04120 | 28030 ft | 402 kts | 324° |
| 2026-05-01 10:59 | 48.95893 | 16.01273 | 27492 ft | 399 kts | 324° |
| 2026-05-01 11:00 | 48.97939 | 15.98462 | 26984 ft | 395 kts | 324° |
| 2026-05-01 11:00 | 48.99967 | 15.95682 | 26519 ft | 391 kts | 324° |
| 2026-05-01 11:00 | 49.01984 | 15.92923 | 26030 ft | 388 kts | 325° |
| 2026-05-01 11:00 | 49.03988 | 15.90184 | 25564 ft | 385 kts | 325° |
| 2026-05-01 11:01 | 49.05971 | 15.87474 | 25096 ft | 382 kts | 325° |
| 2026-05-01 11:01 | 49.07923 | 15.84805 | 24637 ft | 380 kts | 325° |
| 2026-05-01 11:01 | 49.09887 | 15.82117 | 24177 ft | 378 kts | 325° |
| 2026-05-01 11:01 | 49.11845 | 15.79435 | 23643 ft | 377 kts | 325° |
| 2026-05-01 11:02 | 49.13787 | 15.76772 | 23135 ft | 375 kts | 325° |
| 2026-05-01 11:02 | 49.15721 | 15.74115 | 22666 ft | 372 kts | 325° |
| 2026-05-01 11:02 | 49.17632 | 15.71487 | 22211 ft | 368 kts | 324° |
| 2026-05-01 11:02 | 49.19533 | 15.68869 | 21735 ft | 366 kts | 324° |
| 2026-05-01 11:03 | 49.21416 | 15.66274 | 21285 ft | 362 kts | 324° |
| 2026-05-01 11:03 | 49.23279 | 15.63703 | 20849 ft | 359 kts | 324° |
| 2026-05-01 11:03 | 49.25127 | 15.61152 | 20409 ft | 358 kts | 324° |
| 2026-05-01 11:03 | 49.26971 | 15.58603 | 19968 ft | 356 kts | 324° |
| 2026-05-01 11:04 | 49.28804 | 15.56068 | 19536 ft | 354 kts | 324° |
| 2026-05-01 11:04 | 49.30629 | 15.53540 | 19101 ft | 353 kts | 324° |
| 2026-05-01 11:04 | 49.32424 | 15.51051 | 18668 ft | 352 kts | 323° |
| 2026-05-01 11:04 | 49.34234 | 15.48539 | 18179 ft | 350 kts | 323° |
| 2026-05-01 11:05 | 49.36035 | 15.46037 | 17716 ft | 349 kts | 323° |
| 2026-05-01 11:05 | 49.37829 | 15.43541 | 17289 ft | 346 kts | 323° |
| 2026-05-01 11:05 | 49.39605 | 15.41066 | 16848 ft | 343 kts | 323° |
| 2026-05-01 11:05 | 49.41369 | 15.38606 | 16416 ft | 341 kts | 323° |
| 2026-05-01 11:06 | 49.43120 | 15.36163 | 15999 ft | 339 kts | 323° |
| 2026-05-01 11:06 | 49.44860 | 15.33734 | 15567 ft | 337 kts | 323° |
| 2026-05-01 11:06 | 49.46593 | 15.31311 | 15160 ft | 336 kts | 323° |
| 2026-05-01 11:07 | 49.50033 | 15.26495 | 14335 ft | 333 kts | 323° |
| 2026-05-01 11:07 | 49.51721 | 15.24128 | 13891 ft | 332 kts | 323° |
| 2026-05-01 11:07 | 49.53427 | 15.21733 | 13434 ft | 330 kts | 323° |
| 2026-05-01 11:07 | 49.55115 | 15.19362 | 13008 ft | 328 kts | 323° |
| 2026-05-01 11:08 | 49.56798 | 15.16994 | 12578 ft | 326 kts | 323° |
| 2026-05-01 11:08 | 49.58466 | 15.14646 | 12165 ft | 324 kts | 322° |
| 2026-05-01 11:08 | 49.61784 | 15.09969 | 11330 ft | 322 kts | 322° |
| 2026-05-01 11:09 | 49.63428 | 15.07646 | 10974 ft | 319 kts | 322° |
| 2026-05-01 11:09 | 49.65039 | 15.05365 | 10847 ft | 309 kts | 322° |
| 2026-05-01 11:09 | 49.66599 | 15.03157 | 10702 ft | 300 kts | 322° |
| 2026-05-01 11:10 | 49.69581 | 14.98927 | 10441 ft | 282 kts | 322° |
| 2026-05-01 11:10 | 49.71019 | 14.96889 | 10191 ft | 280 kts | 322° |
| 2026-05-01 11:10 | 49.72454 | 14.94858 | 9896 ft | 279 kts | 322° |
| 2026-05-01 11:10 | 49.73884 | 14.92834 | 9584 ft | 278 kts | 322° |
| 2026-05-01 11:11 | 49.75288 | 14.90838 | 9309 ft | 277 kts | 322° |
| 2026-05-01 11:11 | 49.76702 | 14.88827 | 9000 ft | 275 kts | 322° |
| 2026-05-01 11:11 | 49.78106 | 14.86827 | 8722 ft | 273 kts | 321° |
| 2026-05-01 11:11 | 49.79498 | 14.84840 | 8419 ft | 271 kts | 321° |
| 2026-05-01 11:12 | 49.80885 | 14.82861 | 8139 ft | 270 kts | 321° |
| 2026-05-01 11:12 | 49.82264 | 14.80895 | 7857 ft | 270 kts | 321° |
| 2026-05-01 11:12 | 49.83644 | 14.78924 | 7567 ft | 270 kts | 321° |
| 2026-05-01 11:12 | 49.85027 | 14.76945 | 7288 ft | 269 kts | 320° |
| 2026-05-01 11:13 | 49.86350 | 14.74888 | 6990 ft | 271 kts | 312° |
| 2026-05-01 11:13 | 49.87492 | 14.72576 | 6749 ft | 268 kts | 309° |
| 2026-05-01 11:13 | 49.88583 | 14.70283 | 6622 ft | 261 kts | 309° |
| 2026-05-01 11:13 | 49.89637 | 14.68068 | 6504 ft | 255 kts | 309° |
| 2026-05-01 11:14 | 49.90681 | 14.65896 | 6370 ft | 247 kts | 309° |
| 2026-05-01 11:14 | 49.91696 | 14.63811 | 6295 ft | 238 kts | 309° |
| 2026-05-01 11:14 | 49.92682 | 14.61800 | 6175 ft | 230 kts | 309° |
| 2026-05-01 11:14 | 49.93633 | 14.59851 | 6059 ft | 224 kts | 310° |
| 2026-05-01 11:15 | 49.94574 | 14.57946 | 5876 ft | 221 kts | 309° |
| 2026-05-01 11:15 | 49.95517 | 14.56019 | 5415 ft | 231 kts | 310° |
| 2026-05-01 11:15 | 49.96516 | 14.54132 | 5306 ft | 225 kts | 311° |
| 2026-05-01 11:15 | 49.97490 | 14.52211 | 5051 ft | 227 kts | 309° |
| 2026-05-01 11:16 | 49.98431 | 14.50271 | 4764 ft | 222 kts | 308° |
| 2026-05-01 11:16 | 49.99352 | 14.48350 | 4458 ft | 218 kts | 308° |
| 2026-05-01 11:16 | 50.00247 | 14.46474 | 4156 ft | 214 kts | 308° |
| 2026-05-01 11:16 | 50.01124 | 14.44649 | 3867 ft | 206 kts | 308° |
| 2026-05-01 11:17 | 50.01947 | 14.42877 | 3597 ft | 198 kts | 308° |
| 2026-05-01 11:17 | 50.02766 | 14.41207 | 3332 ft | 190 kts | 309° |
| 2026-05-01 11:17 | 50.03538 | 14.39614 | 3104 ft | 179 kts | 308° |
| 2026-05-01 11:17 | 50.04258 | 14.38127 | 2888 ft | 162 kts | 309° |
| 2026-05-01 11:18 | 50.04894 | 14.36798 | 2679 ft | 146 kts | 307° |
| 2026-05-01 11:18 | 50.05513 | 14.35510 | 2470 ft | 148 kts | 308° |
| 2026-05-01 11:18 | 50.06116 | 14.34258 | 2265 ft | 144 kts | 308° |
| 2026-05-01 11:18 | 50.06709 | 14.33024 | 2071 ft | 143 kts | 309° |
| 2026-05-01 11:19 | 50.07304 | 14.31789 | 1871 ft | 143 kts | 308° |
| 2026-05-01 11:19 | 50.07898 | 14.30537 | 1696 ft | 144 kts | 308° |
| 2026-05-01 11:19 | 50.08501 | 14.29284 | 1456 ft | 145 kts | 307° |
| 2026-05-01 11:19 | 50.09113 | 14.28015 | 1265 ft | 148 kts | 308° |
| 2026-05-01 11:20 | 50.09700 | 14.26810 | 1212 ft | 122 kts | 307° |
| 2026-05-01 11:20 | 50.10119 | 14.25943 | 1189 ft | 69 kts | 307° |
| 2026-05-01 11:20 | 50.10309 | 14.25679 | 1185 ft | 23 kts | 341° |
| 2026-05-01 11:20 | 50.10423 | 14.25659 | 1182 ft | 14 kts | 5° |
| 2026-05-01 11:21 | 50.10481 | 14.25704 | 1176 ft | 10 kts | 66° |
| 2026-05-01 11:21 | 50.10498 | 14.25834 | 1175 ft | 15 kts | 79° |
| 2026-05-01 11:21 | 50.10519 | 14.26001 | 1169 ft | 16 kts | 79° |
| 2026-05-01 11:21 | 50.10537 | 14.26163 | 1173 ft | 15 kts | 86° |
| 2026-05-01 11:22 | 50.10560 | 14.26246 | 1170 ft | 8 kts | 36° |
| 2026-05-01 11:22 | 50.10589 | 14.26277 | 1173 ft | 2 kts | 34° |
| 2026-05-01 11:22 | 50.10592 | 14.26280 | 1169 ft | 0 kts | 34° |